Canyoncito, New Mexico
Current Conditions -  °F | °C
As of 1:53 PM on Saturday 22 Nov 2014 (Local Time) from KSAF Reporting Station
Clear Clear  
Wind Chill: 54°   Ceiling: Unl
Heat Index: 54°   Visibility: 10mi
Dew Point: 18°   Wind: 9mph
Humidity: 24%   Direction: 280°W
Pressure: 29.94"   Gusts: 18mph
Location:  35.6111°N, 105.774°W
Report Text: KSAF 222053Z 28008G16KT 10SM CLR 12/M08 A2994 RMK AO2 SLP107 T01221078 56036
Loading
Personal Weather Stations






























Interactive Weather Map New forecast layout! Learn more

10-Day Weather Forecast

Advertisements
Track Severe Weather on mobile